Time;durP1;ratioP1;P1;durP2;ratioP2;P2;SDS_P1;SDS_P2;PMS_P1;PMS_P2;Temp;Humidity;BMP_temperature;BMP_pressure;BME280_temperature;BME280_humidity;BME280_pressure;Samples;Min_cycle;Max_cycle;Signal;HPM_P1;HPM_P2
2022/01/04 00:02:14;;;;;;;5.55;3.80;;;;;;;8.95;55.50;98537.63;5087475;28;20041;-68
2022/01/04 00:04:46;;;;;;;5.32;2.60;;;;;;;8.91;55.46;98529.03;5086985;28;20239;-68
2022/01/04 00:07:15;;;;;;;6.72;2.53;;;;;;;8.91;55.47;98536.13;5087696;28;20040;-68
2022/01/04 00:09:45;;;;;;;5.55;3.20;;;;;;;8.93;55.53;98526.31;5087624;28;20045;-68
2022/01/04 00:15:06;;;;;;;6.47;2.55;;;;;;;8.87;55.40;98518.75;5087444;28;20134;-68
2022/01/04 00:17:38;;;;;;;5.28;2.45;;;;;;;8.88;55.38;98505.44;5087145;28;20041;-68
2022/01/04 00:20:12;;;;;;;4.57;2.38;;;;;;;8.58;55.09;98444.78;5087220;28;20044;-68
2022/01/04 00:22:44;;;;;;;3.50;2.33;;;;;;;8.92;55.13;98487.63;5086816;28;20106;-68
2022/01/04 00:25:16;;;;;;;4.22;2.40;;;;;;;8.93;55.19;98486.66;5087008;28;20044;-68
2022/01/04 00:27:49;;;;;;;5.30;2.95;;;;;;;8.86;55.47;98480.91;5087483;28;20049;-68
2022/01/04 00:30:21;;;;;;;7.95;3.22;;;;;;;8.90;55.49;98486.84;5087148;28;20090;-67
2022/01/04 00:32:53;;;;;;;5.40;3.28;;;;;;;8.89;55.40;98487.81;5087068;28;20040;-68
2022/01/04 00:35:27;;;;;;;4.82;2.20;;;;;;;8.87;55.34;98473.84;5086767;28;20343;-67
2022/01/04 00:37:59;;;;;;;4.00;2.35;;;;;;;7.92;55.49;98338.88;5086742;28;20094;-70
2022/01/04 00:40:32;;;;;;;3.90;2.50;;;;;;;8.90;55.49;98465.72;5086198;28;20045;-68
2022/01/04 00:43:05;;;;;;;4.25;2.65;;;;;;;8.90;55.66;98463.94;5086965;28;20086;-67
2022/01/04 00:45:37;;;;;;;4.38;2.65;;;;;;;8.94;55.54;98459.31;5086632;28;20089;-69
2022/01/04 00:51:01;;;;;;;6.45;2.88;;;;;;;8.93;55.40;98457.59;5086580;28;20293;-67
2022/01/04 00:53:33;;;;;;;7.13;3.38;;;;;;;8.94;55.48;98462.78;5086485;28;20040;-67
2022/01/04 00:56:06;;;;;;;4.65;2.88;;;;;;;8.94;55.60;98465.44;5086370;28;20086;-66
2022/01/04 00:58:38;;;;;;;6.32;2.85;;;;;;;8.94;55.46;98457.50;5086626;28;20041;-68
2022/01/04 01:01:10;;;;;;;6.18;3.45;;;;;;;8.95;55.40;98442.50;5086217;28;20044;-67
2022/01/04 01:03:42;;;;;;;4.68;3.67;;;;;;;8.96;55.40;98434.47;5086252;28;20044;-67
2022/01/04 01:06:17;;;;;;;9.00;3.15;;;;;;;8.96;55.38;98444.19;5086117;28;20090;-67
2022/01/04 01:08:49;;;;;;;3.97;2.45;;;;;;;8.95;55.40;98432.78;5086394;28;20048;-67
2022/01/04 01:11:21;;;;;;;4.18;2.50;;;;;;;8.95;55.45;98432.78;5085966;28;20045;-66
2022/01/04 01:13:54;;;;;;;7.10;3.13;;;;;;;8.49;55.60;98412.81;5086260;28;20235;-66
2022/01/04 01:16:26;;;;;;;5.15;2.97;;;;;;;8.87;55.52;98413.91;5085997;28;20157;-66
2022/01/04 01:18:58;;;;;;;4.68;2.83;;;;;;;8.87;55.53;98419.19;5086143;28;20048;-66
2022/01/04 01:21:32;;;;;;;5.68;3.10;;;;;;;8.88;55.53;98418.25;5085695;28;20056;-66
2022/01/04 01:24:04;;;;;;;4.65;2.45;;;;;;;8.89;55.57;98405.91;5085888;28;20040;-66
2022/01/04 01:26:37;;;;;;;5.75;3.35;;;;;;;8.83;55.56;98401.84;5086096;28;20296;-66
2022/01/04 01:29:10;;;;;;;5.43;2.60;;;;;;;8.85;55.58;98399.09;5085970;28;20049;-66
2022/01/04 01:31:42;;;;;;;4.47;2.72;;;;;;;8.85;55.65;98392.03;5084974;28;20045;-66
2022/01/04 01:34:14;;;;;;;4.63;2.67;;;;;;;8.87;55.60;98378.72;5085707;28;20090;-66
2022/01/04 01:36:48;;;;;;;3.63;2.40;;;;;;;8.85;55.74;98386.75;5085949;28;20044;-66
2022/01/04 01:39:20;;;;;;;3.65;2.35;;;;;;;8.87;55.71;98384.84;5085570;28;20040;-66
2022/01/04 01:41:52;;;;;;;5.45;2.78;;;;;;;8.86;55.68;98380.50;5085573;28;20041;-66
2022/01/04 01:44:25;;;;;;;4.75;2.83;;;;;;;8.83;55.95;98379.84;5085791;28;20040;-66
2022/01/04 01:46:57;;;;;;;6.55;2.60;;;;;;;8.82;55.89;98383.44;5085511;28;20182;-66
2022/01/04 01:49:29;;;;;;;4.30;2.28;;;;;;;8.78;55.94;98366.94;5085494;28;20045;-66
2022/01/04 01:52:03;;;;;;;4.43;2.55;;;;;;;8.81;55.97;98373.81;5085350;28;20041;-66
2022/01/04 01:54:36;;;;;;;5.82;2.97;;;;;;;8.85;55.80;98370.03;5085768;28;20048;-66
2022/01/04 01:57:08;;;;;;;5.10;2.67;;;;;;;8.86;55.90;98371.75;5085369;28;20098;-66
2022/01/04 01:59:40;;;;;;;5.25;2.65;;;;;;;8.42;55.74;98295.31;5085359;28;20044;-66
2022/01/04 02:02:13;;;;;;;5.30;2.60;;;;;;;8.85;55.92;98364.75;5085637;28;20044;-66
2022/01/04 02:04:45;;;;;;;5.07;2.88;;;;;;;8.90;55.78;98363.50;5085649;28;20134;-66
2022/01/04 02:07:20;;;;;;;6.47;4.03;;;;;;;8.93;55.55;98354.53;5085381;28;20085;-66
2022/01/04 02:10:02;;;;;;;4.38;2.47;;;;;;;8.96;55.63;98349.06;5085265;28;20048;-66
2022/01/04 02:12:36;;;;;;;6.75;3.47;;;;;;;8.99;55.62;98343.56;5085216;28;20082;-68
2022/01/04 02:15:11;;;;;;;6.03;3.63;;;;;;;9.01;55.51;98344.31;5085497;28;20044;-67
2022/01/04 02:17:43;;;;;;;3.53;2.70;;;;;;;8.99;55.66;98331.22;5085269;28;20247;-67
2022/01/04 02:20:18;;;;;;;4.80;3.22;;;;;;;9.00;55.55;98327.63;5085159;28;20236;-67
2022/01/04 02:22:52;;;;;;;4.78;2.60;;;;;;;9.02;55.44;98338.09;5085364;28;20284;-67
2022/01/04 02:25:24;;;;;;;4.18;2.53;;;;;;;9.03;55.40;98333.66;5085117;28;20040;-67
2022/01/04 02:27:57;;;;;;;5.53;2.70;;;;;;;9.01;55.65;98325.81;5085432;28;20114;-67
2022/01/04 02:30:30;;;;;;;5.40;3.00;;;;;;;8.98;56.08;98321.59;5085221;28;20090;-67
2022/01/04 02:33:02;;;;;;;5.00;2.53;;;;;;;8.95;56.30;98321.78;5085174;28;20045;-67
2022/01/04 02:35:36;;;;;;;5.53;3.55;;;;;;;8.95;56.16;98311.22;5085384;28;20040;-67
2022/01/04 02:38:09;;;;;;;5.35;2.70;;;;;;;8.94;56.18;98303.38;5085097;28;20198;-66
2022/01/04 02:40:41;;;;;;;4.55;2.67;;;;;;;8.24;56.33;98204.94;5085274;28;20056;-67
2022/01/04 02:43:14;;;;;;;5.65;2.67;;;;;;;8.91;56.29;98288.59;5085063;28;20044;-67
2022/01/04 02:45:46;;;;;;;5.15;2.85;;;;;;;8.91;56.50;98285.94;5084946;28;20045;-67
2022/01/04 02:48:18;;;;;;;5.88;3.47;;;;;;;8.85;56.66;98280.22;5085030;28;20242;-66
2022/01/04 02:50:52;;;;;;;5.90;3.00;;;;;;;8.88;56.39;98275.56;5085053;28;20338;-65
2022/01/04 02:53:24;;;;;;;4.30;2.67;;;;;;;8.88;56.40;98278.22;5084835;28;20090;-66
2022/01/04 02:55:56;;;;;;;5.25;2.63;;;;;;;8.89;56.23;98274.63;5084830;28;20243;-66
2022/01/04 02:58:29;;;;;;;4.10;2.35;;;;;;;8.94;56.01;98269.03;5084819;28;20097;-65
2022/01/04 03:01:01;;;;;;;3.75;2.40;;;;;;;8.95;55.98;98268.09;5084958;28;20098;-66
2022/01/04 03:03:34;;;;;;;4.03;2.55;;;;;;;8.96;56.09;98267.13;5087536;28;20288;-65
2022/01/04 03:06:08;;;;;;;3.53;2.10;;;;;;;8.41;56.40;98173.03;5087980;28;20041;-65
2022/01/04 03:08:40;;;;;;;4.88;2.30;;;;;;;8.94;56.33;98248.75;5088744;28;20045;-66
2022/01/04 03:11:12;;;;;;;4.30;2.60;;;;;;;8.94;56.44;98258.47;5088399;28;20044;-66
2022/01/04 03:13:44;;;;;;;3.10;2.00;;;;;;;9.00;56.15;98245.69;5088375;28;20041;-66
2022/01/04 03:16:16;;;;;;;4.30;2.10;;;;;;;9.08;55.96;98239.91;5088284;28;20044;-65
2022/01/04 03:19:03;;;;;;;3.78;1.90;;;;;;;9.15;55.90;98227.97;5088223;28;20185;-66
2022/01/04 03:21:38;;;;;;;4.18;2.40;;;;;;;9.17;55.81;98236.63;5088025;28;20099;-66
2022/01/04 03:24:12;;;;;;;4.50;1.70;;;;;;;9.17;56.14;98223.44;5088433;28;20255;-66
2022/01/04 03:26:44;;;;;;;3.53;1.98;;;;;;;9.19;56.04;98216.25;5088120;28;20074;-66
2022/01/04 03:29:18;;;;;;;4.32;1.70;;;;;;;9.20;56.07;98217.13;5088320;28;20089;-66
2022/01/04 03:31:50;;;;;;;2.90;1.77;;;;;;;9.26;55.92;98214.06;5088265;28;20247;-66
2022/01/04 03:34:23;;;;;;;2.83;1.67;;;;;;;9.30;55.78;98212.91;5087970;28;20041;-66
2022/01/04 03:36:56;;;;;;;3.22;1.67;;;;;;;9.35;55.76;98204.66;5087901;28;20044;-66
2022/01/04 03:39:28;;;;;;;3.03;1.45;;;;;;;9.38;55.81;98204.44;5087891;28;20090;-66
2022/01/04 03:42:00;;;;;;;3.53;1.50;;;;;;;9.42;55.61;98198.03;5087746;28;20090;-66
2022/01/04 03:44:33;;;;;;;2.58;1.40;;;;;;;9.45;55.53;98180.16;5088043;28;20044;-66
2022/01/04 03:47:06;;;;;;;2.30;1.20;;;;;;;9.53;55.46;98176.97;5088041;28;20040;-66
2022/01/04 03:49:38;;;;;;;1.70;1.17;;;;;;;9.57;55.23;98173.16;5087736;28;20040;-66
2022/01/04 03:52:11;;;;;;;2.88;1.63;;;;;;;9.59;55.22;98168.63;5087926;28;20044;-66
2022/01/04 03:54:44;;;;;;;1.95;1.17;;;;;;;9.62;55.24;98163.09;5087681;28;20044;-66
2022/01/04 03:57:16;;;;;;;1.90;1.17;;;;;;;9.47;55.23;98137.72;5087559;28;20044;-66
2022/01/04 03:59:48;;;;;;;2.72;1.73;;;;;;;9.71;55.07;98149.22;5087837;28;20044;-66
2022/01/04 04:02:20;;;;;;;2.58;1.20;;;;;;;9.73;55.10;98141.19;5086627;28;20082;-66
2022/01/04 04:04:52;;;;;;;4.05;1.85;;;;;;;9.75;55.08;98131.34;5087731;28;20044;-66
2022/01/04 04:07:26;;;;;;;3.38;1.67;;;;;;;9.74;55.03;98135.78;5087630;28;20047;-67
2022/01/04 04:09:58;;;;;;;2.83;1.42;;;;;;;9.76;55.19;98138.31;5087601;28;20041;-66
2022/01/04 04:12:28;;;;;;;2.95;1.55;;;;;;;9.73;55.14;98131.44;5087570;28;20041;-65
2022/01/04 04:15:03;;;;;;;5.60;1.73;;;;;;;9.75;55.26;98136.63;5085466;28;20312;-66
2022/01/04 04:17:34;;;;;;;2.63;1.50;;;;;;;9.69;55.49;98142.34;5087196;28;20259;-66
2022/01/04 04:20:06;;;;;;;3.40;1.63;;;;;;;9.64;55.83;98145.31;5087366;28;20040;-66
2022/01/04 04:22:36;;;;;;;3.42;2.08;;;;;;;9.60;55.94;98151.78;5086817;28;20053;-66
2022/01/04 04:25:05;;;;;;;3.00;1.75;;;;;;;9.55;56.29;98159.19;5086983;28;20056;-66
2022/01/04 04:27:35;;;;;;;3.97;1.85;;;;;;;9.56;56.01;98147.66;5087253;28;20254;-66
2022/01/04 04:30:07;;;;;;;2.70;1.30;;;;;;;9.37;55.81;98094.34;5087237;28;20064;-66
2022/01/04 04:32:35;;;;;;;2.55;1.52;;;;;;;9.60;55.66;98120.88;5087411;28;20108;-66
2022/01/04 04:35:06;;;;;;;3.08;1.73;;;;;;;9.58;55.74;98127.25;5087117;28;20082;-66
2022/01/04 04:37:37;;;;;;;4.88;2.08;;;;;;;9.49;56.00;98112.03;5086278;28;20296;-66
2022/01/04 04:40:08;;;;;;;4.25;2.25;;;;;;;9.45;56.04;98113.19;5086712;28;20041;-66
2022/01/04 04:42:37;;;;;;;4.55;2.50;;;;;;;9.30;56.46;98118.56;5087153;28;20099;-66
2022/01/04 04:45:08;;;;;;;3.95;2.42;;;;;;;9.13;55.87;98108.28;5086621;28;20047;-66
2022/01/04 04:47:37;;;;;;;4.43;2.25;;;;;;;9.03;56.33;98101.94;5086800;28;20047;-66
2022/01/04 04:50:09;;;;;;;3.25;2.05;;;;;;;8.91;56.17;98095.69;5086546;28;20347;-66
2022/01/04 04:52:39;;;;;;;4.32;2.63;;;;;;;8.80;56.51;98100.00;5086755;28;20044;-66
2022/01/04 04:55:09;;;;;;;3.72;2.45;;;;;;;8.83;56.45;98097.16;5086718;28;20041;-66
2022/01/04 04:57:39;;;;;;;3.83;2.53;;;;;;;8.72;56.06;98092.59;5086337;28;20037;-66
2022/01/04 05:00:10;;;;;;;4.18;2.10;;;;;;;8.67;56.52;98090.28;5086300;28;20173;-66
2022/01/04 05:02:39;;;;;;;3.05;1.80;;;;;;;8.75;56.33;98092.41;5085660;28;20098;-66
2022/01/04 05:05:10;;;;;;;3.53;2.38;;;;;;;8.73;56.23;98096.09;5086239;28;20048;-66
2022/01/04 05:07:40;;;;;;;3.33;2.35;;;;;;;8.70;56.29;98091.88;5086285;28;20029;-66
2022/01/04 05:10:10;;;;;;;4.47;2.13;;;;;;;8.40;56.01;98063.09;5086101;28;20289;-66
2022/01/04 05:12:39;;;;;;;3.47;2.08;;;;;;;8.62;56.47;98095.03;5086129;28;20051;-66
2022/01/04 05:15:11;;;;;;;3.95;2.25;;;;;;;8.66;56.41;98077.16;5086370;28;20048;-66
2022/01/04 05:17:40;;;;;;;3.95;2.17;;;;;;;8.60;56.57;98080.22;5086316;28;20040;-66
2022/01/04 05:20:11;;;;;;;5.50;2.90;;;;;;;8.61;56.71;98080.13;5086276;28;20040;-66
2022/01/04 05:22:42;;;;;;;3.38;2.38;;;;;;;8.53;56.75;98085.06;5085671;28;20076;-66
2022/01/04 05:25:11;;;;;;;4.05;2.42;;;;;;;8.46;56.68;98077.66;5085387;28;20063;-67
2022/01/04 05:27:41;;;;;;;3.38;2.20;;;;;;;8.37;56.61;98058.00;5085898;28;20078;-66
2022/01/04 05:30:12;;;;;;;4.63;2.58;;;;;;;8.41;56.92;98063.94;5086064;28;20043;-66
2022/01/04 05:32:41;;;;;;;10.73;6.35;;;;;;;8.37;57.05;98070.34;5085957;28;20048;-66
2022/01/04 05:35:12;;;;;;;7.15;4.28;;;;;;;8.38;57.24;98070.25;5085735;28;20040;-66
2022/01/04 05:37:43;;;;;;;6.32;3.13;;;;;;;8.14;57.45;98035.78;5086016;28;20048;-66
2022/01/04 05:40:13;;;;;;;6.03;2.75;;;;;;;8.39;57.64;98073.75;5085968;28;20104;-66
2022/01/04 05:42:42;;;;;;;3.85;2.40;;;;;;;8.36;57.69;98066.88;5085549;28;20040;-67
2022/01/04 05:45:13;;;;;;;4.35;2.55;;;;;;;8.29;58.13;98052.38;5085649;28;20103;-67
2022/01/04 05:47:43;;;;;;;6.45;2.75;;;;;;;8.26;58.19;98058.72;5085561;28;20037;-66
2022/01/04 05:50:13;;;;;;;3.80;2.42;;;;;;;8.29;58.33;98060.31;5085579;28;20048;-66
2022/01/04 05:52:45;;;;;;;3.40;2.08;;;;;;;8.22;58.89;98048.47;5085821;28;20208;-66
2022/01/04 05:55:14;;;;;;;4.15;2.65;;;;;;;8.16;58.48;98041.78;5085486;28;20041;-66
2022/01/04 05:57:44;;;;;;;5.70;2.40;;;;;;;8.16;58.84;98036.53;5084971;28;20043;-66
2022/01/04 06:00:15;;;;;;;3.95;2.47;;;;;;;8.05;58.57;98038.19;5085667;28;20040;-67
2022/01/04 06:02:44;;;;;;;4.30;2.85;;;;;;;8.02;58.72;98034.78;5085556;28;20166;-66
2022/01/04 06:05:15;;;;;;;3.45;2.10;;;;;;;7.90;59.11;98027.69;5085343;28;20040;-67
2022/01/04 06:07:46;;;;;;;5.60;2.58;;;;;;;7.93;59.08;98027.47;5085587;28;20041;-67
2022/01/04 06:10:15;;;;;;;4.32;2.38;;;;;;;7.88;58.97;98011.09;5085554;28;20112;-67
2022/01/04 06:15:38;;;;;;;4.10;2.30;;;;;;;7.83;59.16;98000.00;5085487;28;20086;-66
2022/01/04 06:18:10;;;;;;;4.80;2.40;;;;;;;7.83;59.26;97997.38;5085243;28;20090;-67
2022/01/04 06:20:44;;;;;;;3.60;2.03;;;;;;;7.80;59.41;98000.22;5084936;28;20064;-66
2022/01/04 06:23:18;;;;;;;3.58;2.35;;;;;;;7.72;59.17;97999.88;5085073;28;20219;-66
2022/01/04 06:25:52;;;;;;;3.28;2.30;;;;;;;7.80;59.20;98000.22;5085124;28;20315;-66
2022/01/04 06:28:25;;;;;;;3.67;2.33;;;;;;;7.45;59.50;97955.03;5085090;28;20044;-66
2022/01/04 06:30:57;;;;;;;6.15;2.90;;;;;;;7.58;59.46;97976.19;5085065;28;20044;-66
2022/01/04 06:33:29;;;;;;;4.97;2.22;;;;;;;7.54;59.59;97990.50;5085226;28;20044;-66
2022/01/04 06:36:01;;;;;;;3.72;2.30;;;;;;;7.43;60.04;97983.28;5084962;28;20041;-66
2022/01/04 06:38:35;;;;;;;3.63;2.10;;;;;;;7.42;60.12;97981.59;5087974;28;20086;-67
2022/01/04 06:41:07;;;;;;;5.30;2.55;;;;;;;7.38;59.99;97969.56;5089262;28;20049;-66
2022/01/04 06:43:39;;;;;;;5.53;2.67;;;;;;;7.22;60.31;97977.56;5089127;28;20098;-66
2022/01/04 06:46:13;;;;;;;4.63;2.45;;;;;;;7.19;60.75;97992.72;5088932;28;20086;-65
2022/01/04 06:48:45;;;;;;;3.63;2.63;;;;;;;7.20;61.00;97982.09;5089158;28;20106;-66
2022/01/04 06:51:18;;;;;;;4.78;2.72;;;;;;;7.21;60.54;97977.66;5088953;28;20086;-66
2022/01/04 06:53:52;;;;;;;3.88;2.35;;;;;;;7.17;60.99;97965.63;5088659;28;20044;-66
2022/01/04 06:56:24;;;;;;;5.57;2.85;;;;;;;7.15;60.49;97965.72;5088958;28;20288;-66
2022/01/04 06:58:56;;;;;;;3.88;2.50;;;;;;;7.25;60.47;97987.06;5088648;28;20044;-66
2022/01/04 07:01:28;;;;;;;4.40;2.80;;;;;;;7.30;60.47;97974.44;5088473;28;20090;-66
2022/01/04 07:04:00;;;;;;;4.50;2.33;;;;;;;7.34;60.56;97982.09;5088711;28;20048;-66
2022/01/04 07:06:33;;;;;;;6.45;2.60;;;;;;;7.17;60.28;97942.75;5088481;28;20045;-66
2022/01/04 07:09:07;;;;;;;5.97;2.97;;;;;;;7.37;61.57;97983.69;5088459;28;20041;-66
2022/01/04 07:11:40;;;;;;;4.75;2.85;;;;;;;7.40;60.36;97995.81;5088527;28;20196;-66
2022/01/04 07:14:12;;;;;;;5.35;2.75;;;;;;;7.43;60.65;97993.00;5088550;28;20082;-66
2022/01/04 07:16:44;;;;;;;4.68;2.85;;;;;;;6.71;60.60;97861.34;5088164;28;20049;-66
2022/01/04 07:19:16;;;;;;;4.38;2.70;;;;;;;7.47;60.92;97976.88;5087493;28;20041;-66
2022/01/04 07:21:48;;;;;;;5.32;3.33;;;;;;;7.40;61.16;97969.47;5087967;28;20056;-67
2022/01/04 07:24:22;;;;;;;4.90;3.53;;;;;;;7.33;61.84;97959.31;5087391;28;20049;-67
2022/01/04 07:26:54;;;;;;;5.60;2.63;;;;;;;7.33;61.44;97955.81;5088229;28;20293;-67
2022/01/04 07:29:27;;;;;;;5.80;3.33;;;;;;;7.30;61.50;97959.47;5088350;28;20040;-67
2022/01/04 07:31:59;;;;;;;5.93;2.83;;;;;;;7.30;61.18;97946.28;5088186;28;20041;-67
2022/01/04 07:34:32;;;;;;;5.50;3.00;;;;;;;6.95;61.88;97876.56;5088219;28;20102;-67
2022/01/04 07:37:04;;;;;;;4.43;2.60;;;;;;;7.31;61.57;97942.72;5087762;28;20040;-66
2022/01/04 07:39:38;;;;;;;5.40;2.42;;;;;;;7.27;61.47;97943.84;5087779;28;20296;-67
2022/01/04 07:42:10;;;;;;;4.03;2.65;;;;;;;7.16;61.66;97943.69;5087555;28;20044;-67
2022/01/04 07:44:42;;;;;;;4.47;2.60;;;;;;;7.18;61.37;97941.81;5087656;28;20094;-67
2022/01/04 07:47:14;;;;;;;4.15;3.00;;;;;;;7.14;61.60;97935.03;5087921;28;20086;-67
2022/01/04 07:49:47;;;;;;;5.40;3.03;;;;;;;7.07;62.11;97926.69;5086887;28;20048;-67
2022/01/04 07:52:19;;;;;;;4.20;2.95;;;;;;;7.02;62.06;97918.22;5087574;28;20041;-67
2022/01/04 07:54:53;;;;;;;5.25;3.22;;;;;;;7.01;62.03;97920.97;5087538;28;20082;-67
2022/01/04 07:57:26;;;;;;;26.10;4.60;;;;;;;6.98;61.98;97924.63;5087587;28;20044;-67
2022/01/04 07:59:58;;;;;;;6.63;3.92;;;;;;;6.94;62.66;97909.13;5087418;28;20044;-67
2022/01/04 08:02:30;;;;;;;5.22;3.53;;;;;;;6.93;62.65;97900.38;5087310;28;20044;-67
2022/01/04 08:05:02;;;;;;;8.30;4.43;;;;;;;7.00;61.93;97890.28;5087608;28;20090;-67
2022/01/04 08:07:35;;;;;;;7.50;4.47;;;;;;;7.07;61.90;97891.59;5086818;28;20044;-67
2022/01/04 08:10:09;;;;;;;6.88;4.15;;;;;;;7.12;61.72;97902.69;5086418;28;20044;-67
2022/01/04 08:12:42;;;;;;;7.55;3.70;;;;;;;6.51;61.86;97819.66;5087220;28;20048;-67
2022/01/04 08:15:14;;;;;;;6.45;4.18;;;;;;;7.02;61.46;97854.16;5087504;28;20090;-67
2022/01/04 08:17:47;;;;;;;7.72;4.35;;;;;;;7.30;61.12;97887.47;5087208;28;20226;-67
2022/01/04 08:20:17;;;;;;;10.00;5.05;;;;;;;7.35;61.10;97903.88;5087010;28;20041;-67
2022/01/04 08:22:47;;;;;;;5.25;3.47;;;;;;;6.47;60.90;97722.56;5086993;28;20052;-67
2022/01/04 08:25:19;;;;;;;7.78;4.63;;;;;;;7.42;61.13;97873.53;5087334;28;20100;-67
2022/01/04 08:27:48;;;;;;;6.47;3.63;;;;;;;7.46;60.91;97869.75;5087146;28;20067;-67
2022/01/04 08:30:18;;;;;;;7.88;5.65;;;;;;;7.48;60.57;97869.63;5086752;28;20051;-67
2022/01/04 08:32:50;;;;;;;6.55;4.80;;;;;;;7.42;61.00;97864.78;5086697;28;20048;-67
2022/01/04 08:35:18;;;;;;;5.72;4.75;;;;;;;7.00;61.10;97785.78;5086734;28;20040;-67
2022/01/04 08:37:49;;;;;;;9.43;4.55;;;;;;;7.44;61.28;97849.69;5087143;28;20063;-67
2022/01/04 08:40:20;;;;;;;7.15;4.75;;;;;;;7.48;60.88;97854.66;5086686;28;20052;-67
2022/01/04 08:42:49;;;;;;;6.07;4.60;;;;;;;7.51;61.08;97859.75;5086485;28;20089;-67
2022/01/04 08:45:21;;;;;;;7.97;5.13;;;;;;;7.55;61.10;97874.41;5086849;28;20084;-67
2022/01/04 08:47:51;;;;;;;7.07;4.40;;;;;;;7.54;61.11;97872.72;5086948;28;20247;-66
2022/01/04 08:50:21;;;;;;;6.90;4.43;;;;;;;7.59;60.64;97877.69;5086478;28;20037;-67
2022/01/04 08:52:51;;;;;;;6.28;4.00;;;;;;;7.61;60.54;97884.53;5086175;28;20098;-67
2022/01/04 08:55:22;;;;;;;6.82;4.00;;;;;;;7.00;60.64;97758.59;5086404;28;20186;-67
2022/01/04 08:57:50;;;;;;;10.25;6.75;;;;;;;7.67;60.79;97867.47;5086619;28;20059;-67
2022/01/04 09:00:21;;;;;;;12.25;4.70;;;;;;;7.48;60.44;97838.00;5085847;28;20037;-67
2022/01/04 09:02:51;;;;;;;7.20;5.07;;;;;;;7.72;60.98;97859.25;5086226;28;20048;-67
2022/01/04 09:05:21;;;;;;;6.25;4.35;;;;;;;7.70;61.20;97854.09;5086319;28;20041;-67
2022/01/04 09:07:51;;;;;;;6.15;4.20;;;;;;;7.72;61.17;97846.91;5086380;28;20040;-67
2022/01/04 09:10:23;;;;;;;8.27;4.95;;;;;;;7.77;61.03;97850.09;5086223;28;20071;-67
2022/01/04 09:12:58;;;;;;;6.72;4.65;;;;;;;7.85;60.84;97857.47;5086276;28;20099;-67
2022/01/04 09:15:31;;;;;;;7.25;5.20;;;;;;;7.89;60.93;97843.13;5086103;28;20048;-67
2022/01/04 09:20:56;;;;;;;8.77;5.75;;;;;;;7.95;61.00;97838.28;5085560;28;20068;-67
2022/01/04 09:23:29;;;;;;;8.05;5.50;;;;;;;7.96;61.13;97845.25;5086068;28;20086;-67
2022/01/04 09:26:02;;;;;;;6.80;4.90;;;;;;;8.00;60.96;97830.06;5085970;28;20086;-67
2022/01/04 09:28:34;;;;;;;8.20;5.53;;;;;;;7.85;60.63;97787.09;5085718;28;20185;-67
2022/01/04 09:31:07;;;;;;;8.23;5.85;;;;;;;8.07;61.08;97814.63;5085588;28;20044;-67
2022/01/04 09:33:40;;;;;;;8.95;5.65;;;;;;;8.07;60.89;97799.66;5085817;28;20052;-67
2022/01/04 09:36:12;;;;;;;6.97;5.20;;;;;;;8.08;60.96;97790.78;5085084;28;20086;-67
2022/01/04 09:38:44;;;;;;;7.57;5.00;;;;;;;8.14;60.76;97789.50;5085277;28;20085;-67
2022/01/04 09:41:18;;;;;;;10.25;5.78;;;;;;;8.18;60.71;97785.72;5085499;28;20044;-67
2022/01/04 09:43:52;;;;;;;8.98;5.60;;;;;;;8.20;60.77;97789.09;5085285;28;20102;-67
2022/01/04 09:46:24;;;;;;;8.57;5.70;;;;;;;8.21;60.91;97788.97;5085396;28;20041;-67
2022/01/04 09:48:56;;;;;;;8.63;6.07;;;;;;;8.24;60.24;97785.28;5085262;28;20086;-67
2022/01/04 09:51:31;;;;;;;6.75;5.45;;;;;;;8.26;59.88;97784.22;5085278;28;20045;-67
2022/01/04 09:54:03;;;;;;;7.53;5.10;;;;;;;7.58;59.82;97670.34;5085275;28;20293;-66
2022/01/04 09:56:37;;;;;;;6.50;5.32;;;;;;;8.31;60.06;97783.88;5085113;28;20082;-66
2022/01/04 09:59:09;;;;;;;9.10;5.72;;;;;;;8.31;60.34;97768.06;5085192;28;20358;-66
2022/01/04 10:01:41;;;;;;;8.73;6.40;;;;;;;8.33;60.09;97759.06;5085326;28;20040;-66
2022/01/04 10:04:14;;;;;;;9.82;6.28;;;;;;;8.33;60.19;97737.97;5085011;28;20063;-66
2022/01/04 10:07:01;;;;;;;8.63;5.47;;;;;;;8.32;60.57;97749.47;5084802;28;20231;-66
2022/01/04 10:09:44;;;;;;;9.25;6.53;;;;;;;8.33;61.10;97737.13;5085132;28;20044;-66
2022/01/04 10:12:21;;;;;;;11.02;7.55;;;;;;;8.28;60.57;97741.88;5085603;28;20048;-66
2022/01/04 10:14:55;;;;;;;9.30;6.50;;;;;;;8.31;60.34;97739.88;5085059;28;20048;-66
2022/01/04 10:17:31;;;;;;;8.05;7.00;;;;;;;8.27;60.46;97722.56;5084933;28;20246;-67
2022/01/04 10:20:03;;;;;;;10.90;7.03;;;;;;;7.38;60.44;97590.03;5084818;28;20090;-67
2022/01/04 10:22:36;;;;;;;12.32;8.15;;;;;;;8.21;60.95;97716.88;5084794;28;20267;-67
2022/01/04 10:25:11;;;;;;;11.60;8.55;;;;;;;8.24;60.90;97708.75;5084894;28;20090;-66
2022/01/04 10:27:46;;;;;;;11.98;8.43;;;;;;;8.20;61.60;97702.00;5085069;28;20086;-67
2022/01/04 10:30:24;;;;;;;11.45;8.55;;;;;;;8.21;61.31;97701.03;5084906;28;20114;-66
2022/01/04 10:32:59;;;;;;;12.07;9.73;;;;;;;8.26;61.12;97698.91;5085111;28;20048;-68
2022/01/04 10:35:30;;;;;;;12.50;9.88;;;;;;;8.19;61.86;97695.88;5084680;28;20312;-68
2022/01/04 10:38:10;;;;;;;12.05;9.63;;;;;;;8.19;61.79;97689.75;5084957;28;20288;-67
2022/01/04 10:40:44;;;;;;;15.35;10.35;;;;;;;7.90;62.22;97653.09;5084171;28;20110;-67
2022/01/04 10:43:19;;;;;;;;;;;;;;;8.07;62.95;97682.72;5085271;28;20142;-66
2022/01/04 10:45:52;;;;;;;13.98;10.88;;;;;;;7.90;63.12;97708.50;5084622;28;19917;-63
2022/01/04 10:48:26;;;;;;;16.75;11.88;;;;;;;7.94;63.30;97693.28;5084605;28;20044;-65
2022/01/04 10:51:05;;;;;;;15.20;12.48;;;;;;;7.90;63.21;97697.94;5084754;28;20044;-67
2022/01/04 10:53:39;;;;;;;14.05;11.50;;;;;;;7.55;63.57;97650.31;5083983;28;20044;-67
2022/01/04 10:56:14;;;;;;;16.63;11.93;;;;;;;7.83;64.62;97686.13;5084460;28;20040;-66
2022/01/04 10:58:48;;;;;;;;;;;;;;;7.92;67.32;97672.31;5085126;28;20106;-67
2022/01/04 11:01:22;;;;;;;16.25;11.05;;;;;;;8.02;64.68;97654.88;5084821;28;19916;-66
2022/01/04 11:03:56;;;;;;;16.30;13.23;;;;;;;7.36;64.26;97526.03;5084926;28;20040;-66
2022/01/04 11:06:31;;;;;;;15.70;12.52;;;;;;;8.08;65.23;97650.09;5084796;28;20489;-66
2022/01/04 11:09:06;;;;;;;15.10;12.32;;;;;;;8.13;64.35;97648.81;5084581;28;20036;-68
2022/01/04 11:11:38;;;;;;;17.30;13.32;;;;;;;8.07;64.01;97651.91;5084491;28;20232;-68
2022/01/04 11:14:13;;;;;;;14.27;12.13;;;;;;;7.98;64.19;97631.44;5084624;28;20086;-66
2022/01/04 11:16:46;;;;;;;15.95;12.48;;;;;;;7.95;64.07;97626.41;5084667;28;20087;-66
2022/01/04 11:19:20;;;;;;;14.25;11.35;;;;;;;7.79;63.64;97571.28;5084024;28;20048;-66
2022/01/04 11:21:53;;;;;;;13.32;10.95;;;;;;;8.01;64.83;97605.69;5083943;28;20110;-66
2022/01/04 11:24:26;;;;;;;16.05;12.98;;;;;;;7.93;64.63;97608.03;5086678;28;20098;-65
2022/01/04 11:26:58;;;;;;;15.05;11.93;;;;;;;7.91;64.04;97593.28;5088095;28;20040;-65
2022/01/04 11:29:43;;;;;;;15.13;11.43;;;;;;;7.92;64.62;97582.63;5087745;28;20037;-66
2022/01/04 11:32:21;;;;;;;17.40;12.83;;;;;;;7.87;64.91;97578.63;5087665;28;20048;-66
2022/01/04 11:35:04;;;;;;;15.20;12.75;;;;;;;7.94;64.76;97578.06;5087359;28;20055;-66
2022/01/04 11:37:38;;;;;;;13.85;11.77;;;;;;;8.03;63.64;97566.84;5088171;28;20063;-67
2022/01/04 11:40:25;;;;;;;15.77;12.80;;;;;;;8.08;65.02;97563.03;5087762;28;20086;-67
2022/01/04 11:42:57;;;;;;;15.15;12.65;;;;;;;8.12;63.47;97557.41;5087653;28;20149;-66
2022/01/04 11:45:41;;;;;;;16.20;12.30;;;;;;;8.15;64.22;97538.72;5087634;28;20048;-66
2022/01/04 11:48:34;;;;;;;14.48;11.48;;;;;;;8.12;64.42;97538.09;5087957;28;20082;-66
2022/01/04 11:51:08;;;;;;;16.77;11.73;;;;;;;8.01;63.88;97529.19;5087499;28;20041;-66
2022/01/04 11:53:40;;;;;;;15.90;11.23;;;;;;;7.99;64.35;97517.91;5087608;28;20090;-66
2022/01/04 11:56:12;;;;;;;14.77;12.05;;;;;;;7.96;64.84;97504.94;5087667;28;20508;-66
2022/01/04 11:58:46;;;;;;;14.77;12.18;;;;;;;7.97;64.87;97504.00;5087212;28;20040;-66
2022/01/04 12:01:27;;;;;;;15.00;12.02;;;;;;;7.96;65.19;97519.94;5087260;28;20047;-66
2022/01/04 12:03:59;;;;;;;14.32;12.15;;;;;;;7.91;64.68;97499.16;5087467;28;20276;-66
2022/01/04 12:06:41;;;;;;;16.75;11.93;;;;;;;6.84;65.45;97355.88;5087650;28;20073;-66
2022/01/04 12:09:29;;;;;;;16.20;13.45;;;;;;;7.53;66.48;97483.50;5087252;28;20040;-66
2022/01/04 12:12:01;;;;;;;15.48;13.18;;;;;;;7.69;65.99;97515.72;5087474;28;20093;-67
2022/01/04 12:14:34;;;;;;;17.45;13.38;;;;;;;7.64;66.47;97506.47;5087201;28;20109;-66
2022/01/04 12:17:09;;;;;;;18.02;13.95;;;;;;;7.57;66.96;97503.41;5087384;28;20040;-66